• Join FlightAware (Why Join?)
  • Login
  • US Flag 
03:37AM EDT


 

Airport Tracker/Info


-or-


 

Live Flight TrackerFlight Track Log ✈ EGF3676 ✈ 24-Jun-2013 ✈ KCLT - KLGA

Flight Track Log - Related Links

Times and Time Zones

All times are in EDT time to prevent confusion due to time zone crossing. See the EGF3676 flight status page for this flight to view local times or setup timezone preferences in your user account.

Time Position Orientation Groundspeed Altitude Reporting Facility
EDT Latitude Longitude Course Direction KTS MPH feet Rate Location/Type
09:07AM 35.1000 -80.7195 90° East  Level FlightAware Approximate
09:07AM 35.1539 -80.8736 123° Southeast 284 327 5,000  Level Atlanta Center
09:08AM 35.1462 -80.6025 29° Northeast  Level FlightAware Approximate
09:08AM 35.1853 -80.8011 62° Northeast 306 352 7,500  Level Atlanta Center
09:09AM 35.2534 -80.5285 30° Northeast  Level FlightAware Approximate
09:09AM 35.2222 -80.7006 66° East 306 352 10,300  Level Atlanta Center
09:10AM 35.3394 -80.4438 72° East  Level FlightAware Approximate
09:10AM 35.2592 -80.6050 65° Northeast 306 352 12,800  Level Atlanta Center
09:11AM 35.2981 -80.5017 65° Northeast 306 352 14,600 1,620 Climbing Atlanta Center
09:12AM 35.3428 -80.3878 64° Northeast 335 386 16,100 1,320 Climbing Atlanta Center
09:14AM 35.4169 -80.1847 66° East 382 440 18,400 1,500 Climbing Washington Center
09:15AM 35.4506 -80.0694 70° East 394 453 20,400 2,160 Climbing Washington Center
09:16AM 35.4889 -79.9311 71° East 389 448 22,800 1,320 Climbing Washington Center
09:17AM 35.5208 -79.7978 74° East 389 448 23,000 60 Climbing Washington Center
09:18AM 35.5483 -79.6689 75° East 396 456 23,000  Level Washington Center
09:19AM 35.5506 -79.5389 89° East 388 447 23,000  Level Washington Center
09:20AM 35.5531 -79.3986 89° East 377 434 23,100 660 Climbing Washington Center
09:21AM 35.5544 -79.2836 89° East 377 434 24,400 1,500 Climbing Washington Center
09:22AM 35.5528 -79.1381 91° East 382 440 26,100 1,440 Climbing Washington Center
09:23AM 35.5728 -79.0217 78° East 387 445 27,300 1,200 Climbing Washington Center
09:24AM 35.6486 -78.9175 48° Northeast 375 432 28,500 1,200 Climbing Washington Center
09:25AM 35.7547 -78.8553 25° Northeast 375 432 29,700 1,080 Climbing Washington Center
09:26AM 35.8650 -78.7933 24° Northeast 401 461 30,700 960 Climbing Washington Center
09:27AM 35.9739 -78.7000 35° Northeast 418 481 31,700 960 Climbing Washington Center
09:28AM 36.0742 -78.6117 35° Northeast 433 498 32,700 660 Climbing Washington Center
09:29AM 36.1767 -78.5203 36° Northeast 444 511 33,000 120 Climbing Washington Center
09:30AM 36.2853 -78.4264 35° Northeast 455 524 33,000  Level Washington Center
09:31AM 36.3961 -78.3272 36° Northeast 466 536 33,000  Level Washington Center
09:32AM 36.5067 -78.2303 35° Northeast 484 557 33,000  Level Washington Center
09:33AM 36.5939 -78.1506 36° Northeast 484 557 33,000  Level Washington Center
09:34AM 36.7089 -78.0428 37° Northeast 477 549 33,000  Level Washington Center
09:35AM 36.7703 -77.8969 62° Northeast 456 525 33,000  Level Washington Center
09:36AM 36.7919 -77.7342 81° East 450 518 33,000  Level Washington Center
09:37AM 36.8261 -77.5794 75° East 455 524 33,000  Level Washington Center
09:38AM 36.9197 -77.4625 45° Northeast 455 524 33,000  Level Washington Center
09:39AM 37.0294 -77.3714 34° Northeast 449 517 33,000  Level Washington Center
09:40AM 37.1394 -77.2775 34° Northeast 462 532 33,000  Level Washington Center
09:41AM 37.2511 -77.1861 33° Northeast 468 539 33,000  Level Washington Center
09:42AM 37.3672 -77.0867 34° Northeast 493 567 33,000  Level Washington Center
09:43AM 37.4978 -76.9897 30° Northeast 493 567 33,000  Level Washington Center
09:44AM 37.6069 -76.9131 29° Northeast 502 578 33,000  Level Washington Center
09:45AM 37.7228 -76.8231 32° Northeast 490 564 33,000  Level Washington Center
09:46AM 37.8444 -76.7358 30° Northeast 490 564 33,000  Level Washington Center
09:47AM 37.9622 -76.6453 31° Northeast 495 570 33,000  Level Washington Center
09:48AM 38.0797 -76.5572 31° Northeast 495 570 33,000  Level Washington Center
09:49AM 38.1972 -76.4664 31° Northeast 490 564 33,000  Level Washington Center
09:50AM 38.3250 -76.3672 31° Northeast 490 564 33,000 -540 Level Washington Center
09:51AM 38.4361 -76.2650 36° Northeast 484 557 32,000 -900 Descending Washington Center
09:52AM 38.5219 -76.1833 37° Northeast 484 557 31,300 -1,020 Descending Washington Center
09:53AM 38.6539 -76.0594 36° Northeast 484 557 30,000 -1,260 Descending Washington Center
09:54AM 38.7647 -75.9564 36° Northeast 484 557 28,800 -1,260 Descending Washington Center
09:55AM 38.8775 -75.8503 36° Northeast 489 563 27,500 -960 Descending Washington Center
09:56AM 38.9883 -75.7464 36° Northeast 489 563 27,000 -300 Descending Washington Center
09:57AM 39.0906 -75.6478 37° Northeast 484 557 27,000 -360 Level Washington Center
09:58AM 39.2072 -75.5461 34° Northeast 484 557 26,300 -840 Descending Washington Center
09:59AM 39.3031 -75.4603 35° Northeast 473 544 25,400 -1,020 Descending Washington Center
10:00AM 39.4217 -75.3525 35° Northeast 473 544 24,300 -1,500 Descending Washington Center
10:02AM 39.6314 -75.1578 36° Northeast 468 539 21,000 -1,800 Descending Washington Center
10:03AM 39.7208 -75.0789 34° Northeast 440 506 19,100 -1,920 Descending Washington Center
10:04AM 39.8244 -74.9864 34° Northeast 419 482 17,200 -1,980 Descending Washington Center
10:05AM 39.9333 -74.8667 40° Northeast 371 427 14,600 -1,920 Descending New York TRACON
10:07AM 40.0667 -74.6833 46° Northeast 345 397 11,000 -1,560 Descending New York TRACON
10:08AM 40.1333 -74.6000 44° Northeast 330 380 10,000 -540 Descending New York TRACON
10:09AM 40.2000 -74.5167 44° Northeast 341 392 10,000  Level New York TRACON
10:10AM 40.2833 -74.4333 37° Northeast 329 379 10,000  Level New York TRACON
10:11AM 40.3500 -74.3500 44° Northeast 324 373 10,000 -300 Level New York TRACON
10:12AM 40.4167 -74.2833 37° Northeast 297 342 9,500 -780 Descending New York TRACON
10:13AM 40.4667 -74.2167 45° Northeast 278 320 8,500 -1,020 Descending New York TRACON
10:14AM 40.5333 -74.1500 37° Northeast 294 338 7,400 -1,260 Descending New York TRACON
10:15AM 40.6000 -74.0667 43° Northeast 287 330 5,900 -1,560 Descending New York TRACON
10:16AM 40.6667 -74.0000 37° Northeast 281 323 4,200 -1,020 Descending New York TRACON
10:17AM 40.7167 -73.9333 45° Northeast 267 307 4,000 -120 Descending New York TRACON
10:18AM 40.7500 -73.8500 62° Northeast 267 307 4,000 -480 Level New York TRACON
10:19AM 40.7833 -73.7667 62° Northeast 263 303 3,100 -540 Descending New York TRACON
10:20AM 40.8333 -73.7333 27° Northeast 198 228 3,000 -120 Descending New York TRACON
10:21AM 40.8833 -73.7167 14° North 190 219 2,900 -120 Descending New York TRACON